CST,Max TemperatureF,Mean TemperatureF,Min TemperatureF,Max Dew PointF,MeanDew PointF,Min DewpointF,Max Humidity, Mean Humidity, Min Humidity, Max Sea Level PressureIn, Mean Sea Level PressureIn, Min Sea Level PressureIn, Max VisibilityMiles, Mean VisibilityMiles, Min VisibilityMiles, Max Wind SpeedMPH, Mean Wind SpeedMPH, Max Gust SpeedMPH,PrecipitationIn, CloudCover, Events, WindDirDegrees
2011-11-1,73,56,41,48,42,38,93,66,29,30.26,30.21,30.17,10,9,5,7,1,,0.00,0,,143
2011-11-2,77,60,46,60,51,44,96,74,46,30.23,30.16,30.11,10,10,7,10,3,,0.00,1,,141
2011-11-3,64,55,44,63,53,38,100,87,48,30.16,30.09,30.03,10,8,2,17,8,22,0.14,6,Rain,284
2011-11-4,64,52,39,45,41,36,89,70,48,30.17,30.13,30.08,10,10,10,13,5,18,0.00,1,,7
2011-11-5,70,56,42,52,47,40,93,76,47,30.18,30.13,30.09,10,9,4,12,4,,0.00,0,,125
2011-11-6,75,62,50,59,53,44,93,75,50,30.23,30.17,30.12,10,10,9,10,4,,0.00,2,,121
2011-11-7,79,69,59,62,58,56,100,77,45,30.23,30.16,30.10,10,10,3,12,3,,0.00,5,,140
2011-11-8,79,70,62,67,64,61,100,86,54,30.11,30.05,29.99,10,8,2,14,7,20,0.07,6,Rain,148
2011-11-9,70,60,50,66,57,41,100,83,44,30.19,30.07,29.99,,,,17,6,25,0.50,6,Rain,320
2011-11-10,60,48,36,40,30,20,82,49,22,30.29,30.25,30.20,10,10,10,17,10,25,0.00,0,,351
2011-11-11,66,48,30,36,31,26,92,62,22,30.30,30.24,30.20,10,10,10,8,1,16,0.00,0,,212
2011-11-12,70,52,35,51,44,32,96,71,47,30.23,30.18,30.09,10,10,7,15,5,22,0.00,1,,160
2011-11-13,78,66,55,62,57,52,100,74,45,30.09,30.04,29.97,10,10,3,15,8,24,0.00,2,,164
2011-11-14,81,70,60,68,64,59,100,89,52,30.05,29.99,29.90,10,5,0,14,5,22,0.00,5,Fog,180
2011-11-15,78,72,66,72,69,64,100,92,74,29.93,29.86,29.79,10,6,1,16,9,24,1.13,7,Rain-Thunderstorm,181
2011-11-16,75,67,55,70,65,52,100,88,66,30.09,29.86,29.74,10,8,2,21,6,29,0.54,7,Rain-Thunderstorm,250
2011-11-17,57,50,39,52,37,25,90,63,29,30.33,30.24,30.10,10,10,9,16,13,25,0.00,3,,356
2011-11-18,63,49,35,46,34,24,90,59,27,30.34,30.25,30.16,10,10,10,10,4,,0.00,0,,119
2011-11-19,73,60,46,60,54,44,97,82,59,30.18,30.13,30.09,10,10,5,10,2,17,0.00,2,,157
2011-11-20,77,68,60,68,64,61,100,93,69,30.24,30.19,30.14,10,4,0,9,2,,0.01,5,Fog,158
2011-11-21,75,67,59,70,66,59,100,93,71,30.25,30.15,30.03,10,6,0,14,4,20,0.01,7,Fog,168
2011-11-22,78,70,62,70,65,61,100,95,69,30.09,30.02,29.95,10,8,1,15,7,30,0.89,8,Rain-Thunderstorm,197
2011-11-23,68,60,50,61,52,48,96,78,50,30.27,30.18,30.09,10,10,10,16,9,22,0.00,3,,356
2011-11-24,68,56,45,48,45,41,97,75,37,30.33,30.28,30.25,10,9,7,6,4,,0.01,0,,30
2011-11-25,70,56,41,60,51,39,100,81,57,30.25,30.17,30.07,10,8,0,10,2,17,0.00,4,Fog,141
2011-11-26,70,65,60,68,64,59,100,94,78,30.05,29.97,29.88,10,6,1,22,8,33,1.02,8,Rain,169
2011-11-27,60,51,41,59,47,39,100,93,82,30.07,30.01,29.93,10,8,2,16,7,22,0.06,8,Rain,315
2011-11-28,44,38,32,40,37,31,100,91,76,30.04,30.01,29.96,10,9,2,12,8,24,0.09,7,Rain,309
2011-11-29,57,44,32,38,33,29,93,73,44,30.15,30.03,29.95,10,10,10,12,4,18,0.00,0,,294
2011-11-30,57,45,33,37,33,29,97,75,34,30.25,30.19,30.15,10,10,10,7,2,,0.00,0,,349